Time;durP1;ratioP1;P1;durP2;ratioP2;P2;SDS_P1;SDS_P2;PMS_P1;PMS_P2;Temp;Humidity;BMP_temperature;BMP_pressure;BME280_temperature;BME280_humidity;BME280_pressure;Samples;Min_cycle;Max_cycle;Signal;HPM_P1;HPM_P2
2022/06/02 00:01:19;;;;;;;;;;;;;;;;;;5039367;28;20351;-87
2022/06/02 00:03:45;;;;;;;;;;;;;;;;;;5036029;28;19921;-88
2022/06/02 00:06:11;;;;;;;;;;;;;;;;;;5040859;28;20452;-87
2022/06/02 00:08:37;;;;;;;;;;;;;;;;;;5038369;28;19921;-88
2022/06/02 00:11:03;;;;;;;;;;;;;;;;;;5039326;28;19920;-88
2022/06/02 00:13:29;;;;;;;;;;;;;;;;;;5033677;28;20415;-89
2022/06/02 00:15:55;;;;;;;;;;;;;;;;;;5037250;28;19913;-88
2022/06/02 00:18:21;;;;;;;;;;;;;;;;;;5037532;28;19942;-88
2022/06/02 00:20:47;;;;;;;;;;;;;;;;;;5033275;28;19932;-88
2022/06/02 00:23:13;;;;;;;;;;;;;;;;;;5034669;28;19928;-88
2022/06/02 00:25:39;;;;;;;;;;;;;;;;;;5038129;28;19952;-89
2022/06/02 00:28:05;;;;;;;;;;;;;;;;;;5032508;28;20032;-79
2022/06/02 00:30:31;;;;;;;;;;;;;;;;;;5034618;28;19924;-79
2022/06/02 00:32:56;;;;;;;;;;;;;;;;;;5040984;28;19912;-79
2022/06/02 00:35:22;;;;;;;;;;;;;;;;;;5035018;28;19913;-79
2022/06/02 00:37:48;;;;;;;;;;;;;;;;;;5037884;28;19920;-79
2022/06/02 00:40:14;;;;;;;;;;;;;;;;;;5038245;28;20085;-79
2022/06/02 00:42:41;;;;;;;;;;;;;;;;;;5037390;28;19928;-79
2022/06/02 00:45:07;;;;;;;;;;;;;;;;;;5035543;28;20599;-79
2022/06/02 00:47:33;;;;;;;;;;;;;;;;;;5031497;28;19920;-79
2022/06/02 00:49:59;;;;;;;;;;;;;;;;;;5032585;28;19916;-78
2022/06/02 00:52:25;;;;;;;;;;;;;;;;;;5037034;28;19924;-79
2022/06/02 00:57:37;;;;;;;;;;;;;;;;;;5031343;28;19920;-81
2022/06/02 01:00:04;;;;;;;;;;;;;;;;;;5045834;28;19913;-80
2022/06/02 01:02:30;;;;;;;;;;;;;;;;;;5034401;28;19912;-79
2022/06/02 01:05:00;;;;;;;;;;;;;;;;;;5032763;28;19913;-79
2022/06/02 01:07:26;;;;;;;;;;;;;;;;;;5038132;28;20027;-80
2022/06/02 01:09:52;;;;;;;;;;;;;;;;;;5038901;28;19917;-80
2022/06/02 01:12:18;;;;;;;;;;;;;;;;;;5035262;28;19992;-81
2022/06/02 01:14:44;;;;;;;;;;;;;;;;;;5033878;28;19913;-81
2022/06/02 01:17:09;;;;;;;;;;;;;;;;;;5030439;28;20369;-81
2022/06/02 01:19:35;;;;;;;;;;;;;;;;;;5032860;28;19916;-80
2022/06/02 01:22:01;;;;;;;;;;;;;;;;;;5037462;28;19913;-81
2022/06/02 01:24:27;;;;;;;;;;;;;;;;;;5034206;28;19912;-81
2022/06/02 01:26:53;;;;;;;;;;;;;;;;;;5052579;28;20457;-81
2022/06/02 01:29:19;;;;;;;;;;;;;;;;;;5048949;28;19959;-81
2022/06/02 01:31:48;;;;;;;;;;;;;;;;;;5033922;28;19966;-81
2022/06/02 01:34:13;;;;;;;;;;;;;;;;;;5037258;28;19959;-81
2022/06/02 01:36:39;;;;;;;;;;;;;;;;;;5034809;28;20378;-81
2022/06/02 01:39:05;;;;;;;;;;;;;;;;;;5025962;28;19917;-81
2022/06/02 01:41:32;;;;;;;;;;;;;;;;;;5037259;28;19913;-80
2022/06/02 01:43:58;;;;;;;;;;;;;;;;;;5035191;28;19919;-81
2022/06/02 01:46:24;;;;;;;;;;;;;;;;;;5036353;28;19912;-81
2022/06/02 01:48:50;;;;;;;;;;;;;;;;;;5030343;28;19920;-80
2022/06/02 01:51:16;;;;;;;;;;;;;;;;;;5033832;28;19916;-80
2022/06/02 01:53:41;;;;;;;;;;;;;;;;;;5032987;28;19912;-79
2022/06/02 01:56:07;;;;;;;;;;;;;;;;;;5038464;28;19966;-79
2022/06/02 01:58:34;;;;;;;;;;;;;;;;;;5036312;28;20000;-79
2022/06/02 02:01:00;;;;;;;;;;;;;;;;;;5036054;28;20003;-79
2022/06/02 02:03:25;;;;;;;;;;;;;;;;;;5033151;28;20011;-79
2022/06/02 02:05:51;;;;;;;;;;;;;;;;;;5039476;28;20436;-80
2022/06/02 02:08:19;;;;;;;;;;;;;;;;;;5028937;28;19916;-80
2022/06/02 02:10:45;;;;;;;;;;;;;;;;;;5035203;28;19921;-80
2022/06/02 02:13:11;;;;;;;;;;;;;;;;;;5034476;28;20374;-80
2022/06/02 02:15:37;;;;;;;;;;;;;;;;;;5032460;28;20430;-80
2022/06/02 02:18:03;;;;;;;;;;;;;;;;;;5036922;28;20305;-80
2022/06/02 02:20:29;;;;;;;;;;;;;;;;;;5035660;28;19959;-80
2022/06/02 02:22:55;;;;;;;;;;;;;;;;;;5032923;28;19917;-80
2022/06/02 02:25:21;;;;;;;;;;;;;;;;;;5036556;28;19912;-80
2022/06/02 02:28:02;;;;;;;;;;;;;;;;;;5038559;28;19986;-80
2022/06/02 02:30:28;;;;;;;;;;;;;;;;;;5036347;28;19956;-82
2022/06/02 02:32:54;;;;;;;;;;;;;;;;;;5038052;28;19938;-80
2022/06/02 02:35:20;;;;;;;;;;;;;;;;;;5037764;28;20300;-80
2022/06/02 02:37:46;;;;;;;;;;;;;;;;;;5040564;28;19913;-80
2022/06/02 02:40:12;;;;;;;;;;;;;;;;;;5039286;28;19912;-79
2022/06/02 02:42:37;;;;;;;;;;;;;;;;;;5043056;28;20428;-80
2022/06/02 02:45:03;;;;;;;;;;;;;;;;;;5038641;28;19989;-79
2022/06/02 02:47:29;;;;;;;;;;;;;;;;;;5037089;28;19913;-79
2022/06/02 02:49:55;;;;;;;;;;;;;;;;;;5039751;28;20023;-79
2022/06/02 02:52:21;;;;;;;;;;;;;;;;;;5038421;28;19919;-79
2022/06/02 02:54:47;;;;;;;;;;;;;;;;;;5040887;28;19923;-79
2022/06/02 02:57:13;;;;;;;;;;;;;;;;;;5041574;28;19913;-80
2022/06/02 02:59:39;;;;;;;;;;;;;;;;;;5039702;28;19940;-80
2022/06/02 03:02:05;;;;;;;;;;;;;;;;;;5036068;28;20401;-81
2022/06/02 03:04:31;;;;;;;;;;;;;;;;;;5039745;28;19913;-81
2022/06/02 03:06:57;;;;;;;;;;;;;;;;;;5040921;28;19944;-78
2022/06/02 03:09:24;;;;;;;;;;;;;;;;;;5039929;28;20580;-79
2022/06/02 03:11:49;;;;;;;;;;;;;;;;;;5037461;28;19913;-78
2022/06/02 03:14:15;;;;;;;;;;;;;;;;;;5037076;28;20376;-79
2022/06/02 03:16:41;;;;;;;;;;;;;;;;;;5039523;28;19912;-79
2022/06/02 03:19:07;;;;;;;;;;;;;;;;;;5038377;28;19913;-80
2022/06/02 03:21:33;;;;;;;;;;;;;;;;;;5032242;28;19947;-80
2022/06/02 03:23:59;;;;;;;;;;;;;;;;;;5037848;28;20020;-79
2022/06/02 03:26:25;;;;;;;;;;;;;;;;;;5032489;28;19916;-78
2022/06/02 03:28:51;;;;;;;;;;;;;;;;;;5042073;28;19928;-78
2022/06/02 03:31:17;;;;;;;;;;;;;;;;;;5039874;28;19955;-78
2022/06/02 03:33:43;;;;;;;;;;;;;;;;;;5032802;28;19913;-78
2022/06/02 03:36:09;;;;;;;;;;;;;;;;;;5038751;28;19916;-78
2022/06/02 03:38:35;;;;;;;;;;;;;;;;;;5038493;28;19913;-79
2022/06/02 03:41:01;;;;;;;;;;;;;;;;;;5038633;28;19939;-79
2022/06/02 03:43:26;;;;;;;;;;;;;;;;;;5039338;28;20320;-78
2022/06/02 03:45:52;;;;;;;;;;;;;;;;;;5035941;28;19913;-78
2022/06/02 03:48:18;;;;;;;;;;;;;;;;;;5056170;28;20379;-80
2022/06/02 03:50:44;;;;;;;;;;;;;;;;;;5038391;28;19913;-80
2022/06/02 03:53:10;;;;;;;;;;;;;;;;;;5038542;28;19919;-79
2022/06/02 03:55:36;;;;;;;;;;;;;;;;;;5033612;28;19919;-79
2022/06/02 03:58:02;;;;;;;;;;;;;;;;;;5037873;28;19912;-79
2022/06/02 04:00:28;;;;;;;;;;;;;;;;;;5029564;28;20062;-79
2022/06/02 04:02:54;;;;;;;;;;;;;;;;;;5035580;28;19959;-81
2022/06/02 04:05:19;;;;;;;;;;;;;;;;;;5036848;28;19913;-80
2022/06/02 04:07:45;;;;;;;;;;;;;;;;;;5032265;28;19978;-80
2022/06/02 04:10:11;;;;;;;;;;;;;;;;;;5036661;28;20430;-81
2022/06/02 04:15:22;;;;;;;;;;;;;;;;;;5037451;28;19982;-81
2022/06/02 04:17:48;;;;;;;;;;;;;;;;;;5037903;28;20381;-81
2022/06/02 04:22:59;;;;;;;;;;;;;;;;;;5032900;28;19921;-81
2022/06/02 04:25:24;;;;;;;;;;;;;;;;;;5039186;28;19917;-82
2022/06/02 04:27:50;;;;;;;;;;;;;;;;;;5038934;28;20426;-80
2022/06/02 04:30:16;;;;;;;;;;;;;;;;;;5036122;28;19920;-79
2022/06/02 04:32:42;;;;;;;;;;;;;;;;;;5034153;28;19939;-79
2022/06/02 04:35:08;;;;;;;;;;;;;;;;;;5037408;28;20333;-80
2022/06/02 04:37:34;;;;;;;;;;;;;;;;;;5035277;28;19913;-79
2022/06/02 04:40:00;;;;;;;;;;;;;;;;;;5029462;28;19912;-79
2022/06/02 04:42:27;;;;;;;;;;;;;;;;;;5066662;28;19919;-78
2022/06/02 04:44:53;;;;;;;;;;;;;;;;;;5036406;28;19966;-77
2022/06/02 04:47:19;;;;;;;;;;;;;;;;;;5036747;28;19916;-78
2022/06/02 04:49:47;;;;;;;;;;;;;;;;;;5033832;28;19925;-78
2022/06/02 04:52:13;;;;;;;;;;;;;;;;;;5039040;28;19913;-87
2022/06/02 04:54:39;;;;;;;;;;;;;;;;;;5036798;28;19917;-84
2022/06/02 04:57:05;;;;;;;;;;;;;;;;;;5040177;28;19913;-84
2022/06/02 04:59:31;;;;;;;;;;;;;;;;;;5040968;28;20402;-83
2022/06/02 05:01:56;;;;;;;;;;;;;;;;;;5032380;28;20290;-83
2022/06/02 05:04:22;;;;;;;;;;;;;;;;;;5030850;28;19913;-83
2022/06/02 05:06:48;;;;;;;;;;;;;;;;;;5038062;28;20435;-80
2022/06/02 05:09:14;;;;;;;;;;;;;;;;;;5032461;28;19921;-80
2022/06/02 05:11:40;;;;;;;;;;;;;;;;;;5032302;28;19913;-85
2022/06/02 05:14:06;;;;;;;;;;;;;;;;;;5030453;28;20334;-85
2022/06/02 05:16:32;;;;;;;;;;;;;;;;;;5035186;28;19913;-85
2022/06/02 05:18:58;;;;;;;;;;;;;;;;;;5031082;28;20353;-85
2022/06/02 05:21:24;;;;;;;;;;;;;;;;;;5036945;28;19916;-85
2022/06/02 05:23:50;;;;;;;;;;;;;;;;;;5032440;28;19943;-84
2022/06/02 05:26:16;;;;;;;;;;;;;;;;;;5032248;28;19923;-85
2022/06/02 05:28:42;;;;;;;;;;;;;;;;;;5030630;28;19921;-85
2022/06/02 05:31:08;;;;;;;;;;;;;;;;;;5033864;28;19913;-84
2022/06/02 05:33:34;;;;;;;;;;;;;;;;;;5053219;28;20390;-83
2022/06/02 05:36:00;;;;;;;;;;;;;;;;;;5029779;28;19979;-84
2022/06/02 05:38:26;;;;;;;;;;;;;;;;;;5030681;28;19913;-82
2022/06/02 05:40:51;;;;;;;;;;;;;;;;;;5026483;28;19920;-84
2022/06/02 05:43:17;;;;;;;;;;;;;;;;;;5027829;28;19917;-82
2022/06/02 05:45:43;;;;;;;;;;;;;;;;;;5033066;28;19917;-80
2022/06/02 05:48:10;;;;;;;;;;;;;;;;;;5037170;28;19917;-85
2022/06/02 05:50:36;;;;;;;;;;;;;;;;;;5033761;28;19995;-85
2022/06/02 05:53:02;;;;;;;;;;;;;;;;;;5033482;28;20066;-85
2022/06/02 05:55:28;;;;;;;;;;;;;;;;;;5038904;28;19919;-86
2022/06/02 05:57:53;;;;;;;;;;;;;;;;;;5038653;28;20465;-86
2022/06/02 06:00:22;;;;;;;;;;;;;;;;;;5038029;28;19909;-85
2022/06/02 06:02:48;;;;;;;;;;;;;;;;;;5036187;28;19912;-85
2022/06/02 06:05:14;;;;;;;;;;;;;;;;;;5035756;28;20096;-90
2022/06/02 06:07:40;;;;;;;;;;;;;;;;;;5038814;28;20386;-85
2022/06/02 06:10:06;;;;;;;;;;;;;;;;;;5036990;28;19968;-89
2022/06/02 06:12:32;;;;;;;;;;;;;;;;;;5036335;28;19947;-84
2022/06/02 06:14:57;;;;;;;;;;;;;;;;;;5027958;28;19913;-85
2022/06/02 06:17:23;;;;;;;;;;;;;;;;;;5031220;28;19920;-85
2022/06/02 06:19:49;;;;;;;;;;;;;;;;;;5036207;28;20005;-86
2022/06/02 06:22:15;;;;;;;;;;;;;;;;;;5036728;28;19987;-85
2022/06/02 06:24:41;;;;;;;;;;;;;;;;;;5033053;28;19913;-85
2022/06/02 06:27:07;;;;;;;;;;;;;;;;;;5035291;28;20312;-85
2022/06/02 06:29:33;;;;;;;;;;;;;;;;;;5033421;28;20297;-85
2022/06/02 06:31:59;;;;;;;;;;;;;;;;;;5035482;28;19913;-85
2022/06/02 06:34:25;;;;;;;;;;;;;;;;;;5038469;28;19912;-85
2022/06/02 06:36:51;;;;;;;;;;;;;;;;;;5032776;28;19912;-86
2022/06/02 06:39:17;;;;;;;;;;;;;;;;;;5035973;28;20511;-86
2022/06/02 06:41:43;;;;;;;;;;;;;;;;;;5035629;28;19913;-87
2022/06/02 06:44:09;;;;;;;;;;;;;;;;;;5028763;28;19913;-84
2022/06/02 06:46:37;;;;;;;;;;;;;;;;;;5036001;28;19966;-82
2022/06/02 06:49:03;;;;;;;;;;;;;;;;;;5036109;28;20310;-81
2022/06/02 06:51:29;;;;;;;;;;;;;;;;;;5029737;28;19924;-82
2022/06/02 06:53:55;;;;;;;;;;;;;;;;;;5035386;28;19948;-82
2022/06/02 06:56:21;;;;;;;;;;;;;;;;;;5032579;28;19943;-82
2022/06/02 06:58:47;;;;;;;;;;;;;;;;;;5037283;28;20396;-81
2022/06/02 07:01:13;;;;;;;;;;;;;;;;;;5039124;28;19957;-81
2022/06/02 07:03:39;;;;;;;;;;;;;;;;;;5032689;28;19962;-81
2022/06/02 07:06:05;;;;;;;;;;;;;;;;;;5041130;28;19915;-83
2022/06/02 07:08:30;;;;;;;;;;;;;;;;;;5031631;28;20348;-82
2022/06/02 07:10:56;;;;;;;;;;;;;;;;;;5033139;28;19917;-83
2022/06/02 07:13:22;;;;;;;;;;;;;;;;;;5030575;28;19966;-82
2022/06/02 07:15:48;;;;;;;;;;;;;;;;;;5031646;28;19930;-82
2022/06/02 07:18:14;;;;;;;;;;;;;;;;;;5050319;28;20006;-82
2022/06/02 07:20:41;;;;;;;;;;;;;;;;;;5037137;28;20217;-82
2022/06/02 07:23:07;;;;;;;;;;;;;;;;;;5041723;28;19968;-82
2022/06/02 07:25:33;;;;;;;;;;;;;;;;;;5038599;28;19920;-82
2022/06/02 07:27:59;;;;;;;;;;;;;;;;;;5039071;28;19916;-85
2022/06/02 07:30:25;;;;;;;;;;;;;;;;;;5039893;28;19974;-86
2022/06/02 07:32:51;;;;;;;;;;;;;;;;;;5029156;28;20084;-86
2022/06/02 07:35:17;;;;;;;;;;;;;;;;;;5050263;28;19919;-86
2022/06/02 07:37:43;;;;;;;;;;;;;;;;;;5033026;28;19912;-87
2022/06/02 07:40:09;;;;;;;;;;;;;;;;;;5051685;28;20319;-87
2022/06/02 07:42:35;;;;;;;;;;;;;;;;;;5037527;28;19932;-86
2022/06/02 07:45:03;;;;;;;;;;;;;;;;;;5037247;28;19920;-86
2022/06/02 07:47:29;;;;;;;;;;;;;;;;;;5039231;28;19982;-86
2022/06/02 07:49:55;;;;;;;;;;;;;;;;;;5036344;28;20460;-85
2022/06/02 07:52:21;;;;;;;;;;;;;;;;;;5040279;28;19913;-88
2022/06/02 07:54:47;;;;;;;;;;;;;;;;;;5044089;28;19944;-91
2022/06/02 07:57:14;;;;;;;;;;;;;;;;;;5051540;28;20516;-88
2022/06/02 07:59:39;;;;;;;;;;;;;;;;;;5041514;28;19913;-87
2022/06/02 08:02:06;;;;;;;;;;;;;;;;;;5039095;28;19975;-88
2022/06/02 08:04:32;;;;;;;;;;;;;;;;;;5032934;28;20382;-85
2022/06/02 08:06:58;;;;;;;;;;;;;;;;;;5036149;28;20020;-89
2022/06/02 08:09:24;;;;;;;;;;;;;;;;;;5034053;28;20519;-89
2022/06/02 08:11:52;;;;;;;;;;;;;;;;;;5031414;28;19913;-90
2022/06/02 08:14:18;;;;;;;;;;;;;;;;;;5043448;28;19995;-89
2022/06/02 08:16:44;;;;;;;;;;;;;;;;;;5039826;28;20024;-89
2022/06/02 08:19:10;;;;;;;;;;;;;;;;;;5040042;28;20538;-89
2022/06/02 08:21:36;;;;;;;;;;;;;;;;;;5043177;28;19916;-88
2022/06/02 08:24:04;;;;;;;;;;;;;;;;;;5035428;28;19917;-90
2022/06/02 08:26:29;;;;;;;;;;;;;;;;;;5041754;28;19927;-88
2022/06/02 08:28:55;;;;;;;;;;;;;;;;;;5038246;28;19925;-88
2022/06/02 08:31:21;;;;;;;;;;;;;;;;;;5030308;28;19912;-88
2022/06/02 08:33:49;;;;;;;;;;;;;;;;;;5048093;28;19967;-88
2022/06/02 08:36:15;;;;;;;;;;;;;;;;;;5044359;28;19909;-93
2022/06/02 08:38:41;;;;;;;;;;;;;;;;;;5035312;28;19909;-94
2022/06/02 08:43:51;;;;;;;;;;;;;;;;;;5038423;28;20031;-91
2022/06/02 08:46:17;;;;;;;;;;;;;;;;;;5036847;28;19940;-90
2022/06/02 08:48:43;;;;;;;;;;;;;;;;;;5036538;28;19924;-93
2022/06/02 08:51:09;;;;;;;;;;;;;;;;;;5040349;28;19913;-88
2022/06/02 08:53:35;;;;;;;;;;;;;;;;;;5035383;28;19917;-87
2022/06/02 08:56:01;;;;;;;;;;;;;;;;;;5036061;28;20377;-90
2022/06/02 08:58:27;;;;;;;;;;;;;;;;;;5039416;28;19912;-89
2022/06/02 09:00:52;;;;;;;;;;;;;;;;;;5037086;28;19928;-87
2022/06/02 09:03:18;;;;;;;;;;;;;;;;;;5036969;28;20401;-83
2022/06/02 09:05:45;;;;;;;;;;;;;;;;;;5036118;28;19917;-89
2022/06/02 09:08:11;;;;;;;;;;;;;;;;;;5035926;28;19920;-89
2022/06/02 09:10:37;;;;;;;;;;;;;;;;;;5037899;28;19912;-89
2022/06/02 09:13:03;;;;;;;;;;;;;;;;;;5037556;28;19924;-88
2022/06/02 09:15:29;;;;;;;;;;;;;;;;;;5043114;28;20466;-88
2022/06/02 09:17:56;;;;;;;;;;;;;;;;;;5036607;28;20003;-88
2022/06/02 09:20:22;;;;;;;;;;;;;;;;;;5036784;28;19913;-88
2022/06/02 09:22:48;;;;;;;;;;;;;;;;;;5036503;28;19924;-89
2022/06/02 09:25:17;;;;;;;;;;;;;;;;;;5035497;28;19913;-87
2022/06/02 09:27:43;;;;;;;;;;;;;;;;;;5033956;28;20301;-88
2022/06/02 09:30:08;;;;;;;;;;;;;;;;;;5036705;28;19920;-89
2022/06/02 09:32:35;;;;;;;;;;;;;;;;;;5033925;28;19913;-87
2022/06/02 09:35:01;;;;;;;;;;;;;;;;;;5035713;28;19951;-87
2022/06/02 09:37:27;;;;;;;;;;;;;;;;;;5038861;28;19912;-87
2022/06/02 09:39:54;;;;;;;;;;;;;;;;;;5035331;28;19924;-88
2022/06/02 09:42:20;;;;;;;;;;;;;;;;;;5037892;28;19948;-88
2022/06/02 09:44:46;;;;;;;;;;;;;;;;;;5034911;28;20077;-88
2022/06/02 09:47:12;;;;;;;;;;;;;;;;;;5035696;28;19944;-87
2022/06/02 09:49:38;;;;;;;;;;;;;;;;;;5037946;28;20031;-88
2022/06/02 09:52:04;;;;;;;;;;;;;;;;;;5035159;28;20024;-87
2022/06/02 09:54:30;;;;;;;;;;;;;;;;;;5036250;28;19916;-89
2022/06/02 09:56:56;;;;;;;;;;;;;;;;;;5040338;28;19939;-88
2022/06/02 09:59:22;;;;;;;;;;;;;;;;;;5035221;28;20650;-88
2022/06/02 10:01:48;;;;;;;;;;;;;;;;;;5039892;28;20006;-88
2022/06/02 10:04:13;;;;;;;;;;;;;;;;;;5039795;28;19915;-89
2022/06/02 10:06:39;;;;;;;;;;;;;;;;;;5035800;28;19924;-88
2022/06/02 10:09:05;;;;;;;;;;;;;;;;;;5036759;28;19920;-87
2022/06/02 10:11:31;;;;;;;;;;;;;;;;;;5034387;28;19931;-88
2022/06/02 10:13:57;;;;;;;;;;;;;;;;;;5034014;28;19960;-88
2022/06/02 10:16:23;;;;;;;;;;;;;;;;;;5039597;28;19972;-87
2022/06/02 10:18:49;;;;;;;;;;;;;;;;;;5032689;28;20526;-87
2022/06/02 10:21:15;;;;;;;;;;;;;;;;;;5035907;28;19909;-87
2022/06/02 10:23:41;;;;;;;;;;;;;;;;;;5034110;28;19951;-88
2022/06/02 10:26:07;;;;;;;;;;;;;;;;;;5033315;28;20461;-88
2022/06/02 10:28:33;;;;;;;;;;;;;;;;;;5032962;28;20460;-89
2022/06/02 10:30:59;;;;;;;;;;;;;;;;;;5034563;28;20011;-88
2022/06/02 10:33:25;;;;;;;;;;;;;;;;;;5036139;28;19908;-88
2022/06/02 10:35:51;;;;;;;;;;;;;;;;;;5034414;28;19989;-89
2022/06/02 10:38:17;;;;;;;;;;;;;;;;;;5033642;28;20386;-88
2022/06/02 10:40:44;;;;;;;;;;;;;;;;;;5034290;28;20447;-88
2022/06/02 10:43:10;;;;;;;;;;;;;;;;;;5036241;28;19990;-88
2022/06/02 10:45:36;;;;;;;;;;;;;;;;;;5035117;28;19917;-89
2022/06/02 10:48:01;;;;;;;;;;;;;;;;;;5035742;28;20424;-89
2022/06/02 10:50:27;;;;;;;;;;;;;;;;;;5034440;28;20518;-88
2022/06/02 10:52:54;;;;;;;;;;;;;;;;;;5039878;28;20423;-88
2022/06/02 10:55:20;;;;;;;;;;;;;;;;;;5037514;28;19919;-86
2022/06/02 10:57:47;;;;;;;;;;;;;;;;;;5037168;28;19920;-86
2022/06/02 11:00:13;;;;;;;;;;;;;;;;;;5045570;28;19913;-85
2022/06/02 11:02:39;;;;;;;;;;;;;;;;;;5032393;28;19919;-83
2022/06/02 11:05:06;;;;;;;;;;;;;;;;;;5049572;28;19912;-85
2022/06/02 11:07:31;;;;;;;;;;;;;;;;;;5034993;28;20397;-84
2022/06/02 11:09:57;;;;;;;;;;;;;;;;;;5054949;28;19921;-84
2022/06/02 11:12:23;;;;;;;;;;;;;;;;;;5042929;28;20003;-85
2022/06/02 11:14:50;;;;;;;;;;;;;;;;;;5028108;28;19951;-83
2022/06/02 11:17:16;;;;;;;;;;;;;;;;;;5063240;28;19924;-85
2022/06/02 11:19:42;;;;;;;;;;;;;;;;;;5039528;28;19917;-84
2022/06/02 11:22:08;;;;;;;;;;;;;;;;;;5039104;28;19975;-85
2022/06/02 11:24:33;;;;;;;;;;;;;;;;;;5037129;28;19996;-84
2022/06/02 11:26:59;;;;;;;;;;;;;;;;;;5038117;28;20378;-84
2022/06/02 11:29:25;;;;;;;;;;;;;;;;;;5038860;28;19921;-84
2022/06/02 11:31:51;;;;;;;;;;;;;;;;;;5034373;28;19912;-85
2022/06/02 11:34:17;;;;;;;;;;;;;;;;;;5036355;28;19924;-85
2022/06/02 11:36:43;;;;;;;;;;;;;;;;;;5033178;28;19920;-85
2022/06/02 11:39:09;;;;;;;;;;;;;;;;;;5036086;28;20278;-83
2022/06/02 11:41:35;;;;;;;;;;;;;;;;;;5038948;28;20386;-86
2022/06/02 11:44:01;;;;;;;;;;;;;;;;;;5048382;28;19960;-87
2022/06/02 11:46:27;;;;;;;;;;;;;;;;;;5045658;28;19939;-87
2022/06/02 11:48:53;;;;;;;;;;;;;;;;;;5037038;28;20650;-88
2022/06/02 11:51:19;;;;;;;;;;;;;;;;;;5045546;28;19958;-86
2022/06/02 11:53:45;;;;;;;;;;;;;;;;;;5041110;28;19958;-88
2022/06/02 11:56:11;;;;;;;;;;;;;;;;;;5048456;28;20313;-88
2022/06/02 11:58:37;;;;;;;;;;;;;;;;;;5042319;28;19966;-88
2022/06/02 12:01:06;;;;;;;;;;;;;;;;;;5043503;28;20660;-85
2022/06/02 12:03:32;;;;;;;;;;;;;;;;;;5032443;28;19919;-85
2022/06/02 12:05:58;;;;;;;;;;;;;;;;;;5037345;28;19913;-86
2022/06/02 12:08:25;;;;;;;;;;;;;;;;;;5033429;28;20791;-86
2022/06/02 12:10:51;;;;;;;;;;;;;;;;;;5036008;28;19931;-86
2022/06/02 12:13:17;;;;;;;;;;;;;;;;;;5036512;28;19938;-86
2022/06/02 12:15:43;;;;;;;;;;;;;;;;;;5031471;28;19913;-86
2022/06/02 12:18:09;;;;;;;;;;;;;;;;;;5038730;28;19916;-86
2022/06/02 12:20:36;;;;;;;;;;;;;;;;;;5037184;28;19955;-86
2022/06/02 12:23:02;;;;;;;;;;;;;;;;;;5035368;28;19924;-85
2022/06/02 12:25:27;;;;;;;;;;;;;;;;;;5039949;28;19913;-86
2022/06/02 12:27:53;;;;;;;;;;;;;;;;;;5035140;28;20007;-85
2022/06/02 12:30:19;;;;;;;;;;;;;;;;;;5035446;28;19960;-85
2022/06/02 12:32:45;;;;;;;;;;;;;;;;;;5038190;28;19969;-90
2022/06/02 12:35:11;;;;;;;;;;;;;;;;;;5035198;28;19920;-87
2022/06/02 12:37:37;;;;;;;;;;;;;;;;;;5039877;28;19947;-85
2022/06/02 12:40:03;;;;;;;;;;;;;;;;;;5036468;28;19924;-86
2022/06/02 12:42:29;;;;;;;;;;;;;;;;;;5034382;28;20663;-85
2022/06/02 12:44:55;;;;;;;;;;;;;;;;;;5036213;28;20015;-85
2022/06/02 12:47:21;;;;;;;;;;;;;;;;;;5035318;28;20027;-87
2022/06/02 12:49:47;;;;;;;;;;;;;;;;;;5037268;28;19920;-84
2022/06/02 12:52:13;;;;;;;;;;;;;;;;;;5038956;28;20358;-85
2022/06/02 12:54:38;;;;;;;;;;;;;;;;;;5037244;28;19912;-85
2022/06/02 12:57:04;;;;;;;;;;;;;;;;;;5037384;28;19952;-87
2022/06/02 12:59:30;;;;;;;;;;;;;;;;;;5048158;28;19909;-91
2022/06/02 13:01:56;;;;;;;;;;;;;;;;;;5030181;28;19919;-88
2022/06/02 13:04:23;;;;;;;;;;;;;;;;;;5030102;28;20404;-86
2022/06/02 13:06:49;;;;;;;;;;;;;;;;;;5038050;28;19995;-86
2022/06/02 13:09:15;;;;;;;;;;;;;;;;;;5045154;28;19964;-86
2022/06/02 13:11:40;;;;;;;;;;;;;;;;;;5038588;28;20448;-85
2022/06/02 13:14:06;;;;;;;;;;;;;;;;;;5033079;28;19916;-84
2022/06/02 13:16:32;;;;;;;;;;;;;;;;;;5033426;28;19917;-86
2022/06/02 13:18:58;;;;;;;;;;;;;;;;;;5035726;28;19984;-85
2022/06/02 13:21:24;;;;;;;;;;;;;;;;;;5031749;28;20366;-86
2022/06/02 13:23:50;;;;;;;;;;;;;;;;;;5034750;28;19912;-85
2022/06/02 13:26:16;;;;;;;;;;;;;;;;;;5034317;28;19916;-85
2022/06/02 13:28:43;;;;;;;;;;;;;;;;;;5033858;28;20424;-87
2022/06/02 13:31:10;;;;;;;;;;;;;;;;;;5033085;28;20488;-86
2022/06/02 13:33:36;;;;;;;;;;;;;;;;;;5038787;28;19916;-82
2022/06/02 13:36:02;;;;;;;;;;;;;;;;;;5029778;28;19944;-83
2022/06/02 13:38:28;;;;;;;;;;;;;;;;;;5030680;28;19924;-82
2022/06/02 13:40:54;;;;;;;;;;;;;;;;;;5034443;28;20014;-82
2022/06/02 13:43:20;;;;;;;;;;;;;;;;;;5039749;28;19912;-82
2022/06/02 13:45:46;;;;;;;;;;;;;;;;;;5026362;28;19912;-81
2022/06/02 13:48:11;;;;;;;;;;;;;;;;;;5027302;28;20798;-83
2022/06/02 13:50:37;;;;;;;;;;;;;;;;;;5033419;28;19912;-83
2022/06/02 13:53:03;;;;;;;;;;;;;;;;;;5031863;28;19913;-82
2022/06/02 13:58:14;;;;;;;;;;;;;;;;;;5038515;28;19915;-83
2022/06/02 14:00:40;;;;;;;;;;;;;;;;;;5036360;28;20384;-82
2022/06/02 14:03:06;;;;;;;;;;;;;;;;;;5038182;28;20486;-82
2022/06/02 14:05:31;;;;;;;;;;;;;;;;;;5033622;28;19919;-82
2022/06/02 14:07:57;;;;;;;;;;;;;;;;;;5035487;28;19920;-82
2022/06/02 14:10:23;;;;;;;;;;;;;;;;;;5035628;28;19940;-83
2022/06/02 14:12:49;;;;;;;;;;;;;;;;;;5042870;28;19920;-83
2022/06/02 14:15:15;;;;;;;;;;;;;;;;;;5032142;28;19912;-83
2022/06/02 14:17:41;;;;;;;;;;;;;;;;;;5035078;28;19952;-83
2022/06/02 14:20:07;;;;;;;;;;;;;;;;;;5034347;28;19912;-82
2022/06/02 14:22:33;;;;;;;;;;;;;;;;;;5035268;28;20536;-82
2022/06/02 14:24:59;;;;;;;;;;;;;;;;;;5033948;28;19916;-83
2022/06/02 14:27:25;;;;;;;;;;;;;;;;;;5035649;28;19928;-84
2022/06/02 14:29:51;;;;;;;;;;;;;;;;;;5039627;28;19920;-84
2022/06/02 14:32:17;;;;;;;;;;;;;;;;;;5035620;28;20267;-84
2022/06/02 14:34:43;;;;;;;;;;;;;;;;;;5036162;28;19917;-85
2022/06/02 14:37:09;;;;;;;;;;;;;;;;;;5042233;28;19970;-82
2022/06/02 14:39:35;;;;;;;;;;;;;;;;;;5038244;28;19927;-85
2022/06/02 14:42:01;;;;;;;;;;;;;;;;;;5040140;28;19919;-86
2022/06/02 14:44:28;;;;;;;;;;;;;;;;;;5036878;28;20373;-86
2022/06/02 14:46:53;;;;;;;;;;;;;;;;;;5036803;28;19970;-87
2022/06/02 14:49:19;;;;;;;;;;;;;;;;;;5038360;28;19924;-86
2022/06/02 14:51:45;;;;;;;;;;;;;;;;;;5042014;28;19912;-86
2022/06/02 14:54:11;;;;;;;;;;;;;;;;;;5038325;28;19916;-86
2022/06/02 14:56:37;;;;;;;;;;;;;;;;;;5039299;28;20435;-86
2022/06/02 14:59:03;;;;;;;;;;;;;;;;;;5036738;28;20020;-86
2022/06/02 15:01:29;;;;;;;;;;;;;;;;;;5041149;28;20486;-86
2022/06/02 15:03:55;;;;;;;;;;;;;;;;;;5036960;28;20729;-85
2022/06/02 15:06:21;;;;;;;;;;;;;;;;;;5041688;28;19909;-86
2022/06/02 15:08:48;;;;;;;;;;;;;;;;;;5040057;28;20023;-86
2022/06/02 15:11:14;;;;;;;;;;;;;;;;;;5036258;28;19921;-86
2022/06/02 15:13:55;;;;;;;;;;;;;;;;;;5039369;28;19920;-86
2022/06/02 15:16:21;;;;;;;;;;;;;;;;;;5040659;28;19991;-86
2022/06/02 15:18:47;;;;;;;;;;;;;;;;;;5041602;28;20042;-85
2022/06/02 15:21:13;;;;;;;;;;;;;;;;;;5041303;28;19908;-86
2022/06/02 15:23:39;;;;;;;;;;;;;;;;;;5036891;28;20339;-86
2022/06/02 15:26:07;;;;;;;;;;;;;;;;;;5034768;28;19970;-86
2022/06/02 15:28:33;;;;;;;;;;;;;;;;;;5036406;28;19920;-84
2022/06/02 15:30:59;;;;;;;;;;;;;;;;;;5048642;28;20046;-84
2022/06/02 15:33:25;;;;;;;;;;;;;;;;;;5035053;28;20475;-86
2022/06/02 15:35:50;;;;;;;;;;;;;;;;;;5028596;28;19913;-86
2022/06/02 15:38:16;;;;;;;;;;;;;;;;;;5026995;28;19997;-86
2022/06/02 15:40:42;;;;;;;;;;;;;;;;;;5030967;28;19913;-86
2022/06/02 15:43:08;;;;;;;;;;;;;;;;;;5042796;28;20385;-83
2022/06/02 15:45:34;;;;;;;;;;;;;;;;;;5039246;28;19917;-82
2022/06/02 15:48:03;;;;;;;;;;;;;;;;;;5024569;28;19916;-83
2022/06/02 15:50:29;;;;;;;;;;;;;;;;;;5030138;28;20024;-82
2022/06/02 15:52:55;;;;;;;;;;;;;;;;;;5057819;28;19958;-83
2022/06/02 15:55:21;;;;;;;;;;;;;;;;;;5025527;28;19920;-83
2022/06/02 15:57:46;;;;;;;;;;;;;;;;;;5027071;28;19913;-84
2022/06/02 16:00:14;;;;;;;;;;;;;;;;;;5028595;28;20027;-83
2022/06/02 16:02:40;;;;;;;;;;;;;;;;;;5025015;28;19915;-81
2022/06/02 16:05:06;;;;;;;;;;;;;;;;;;5028365;28;19917;-82
2022/06/02 16:07:32;;;;;;;;;;;;;;;;;;5026400;28;20440;-83
2022/06/02 16:12:42;;;;;;;;;;;;;;;;;;5024237;28;20432;-82
2022/06/02 16:15:08;;;;;;;;;;;;;;;;;;5027690;28;19913;-82
2022/06/02 16:17:34;;;;;;;;;;;;;;;;;;5025765;28;19913;-82
2022/06/02 16:20:00;;;;;;;;;;;;;;;;;;5025853;28;19919;-82
2022/06/02 16:22:26;;;;;;;;;;;;;;;;;;5024966;28;19963;-84
2022/06/02 16:24:52;;;;;;;;;;;;;;;;;;5024379;28;19912;-84
2022/06/02 16:27:17;;;;;;;;;;;;;;;;;;5025010;28;20366;-84
2022/06/02 16:29:43;;;;;;;;;;;;;;;;;;5017449;28;1184724;-82
2022/06/02 16:32:10;;;;;;;;;;;;;;;;;;5024254;28;19967;-83
2022/06/02 16:34:36;;;;;;;;;;;;;;;;;;5030831;28;19917;-83
2022/06/02 16:37:02;;;;;;;;;;;;;;;;;;5023585;28;19912;-83
2022/06/02 16:39:28;;;;;;;;;;;;;;;;;;5023831;28;19917;-83
2022/06/02 16:41:54;;;;;;;;;;;;;;;;;;5030533;28;19994;-86
2022/06/02 16:44:20;;;;;;;;;;;;;;;;;;5029440;28;19917;-83
2022/06/02 16:46:46;;;;;;;;;;;;;;;;;;5023110;28;19923;-83
2022/06/02 16:49:12;;;;;;;;;;;;;;;;;;5025516;28;19924;-83
2022/06/02 16:51:38;;;;;;;;;;;;;;;;;;5022528;28;19916;-84
2022/06/02 16:54:04;;;;;;;;;;;;;;;;;;5029352;28;20373;-83